createdAt,value
2023-04-13T00:03:39.720Z,2.33
2023-04-13T00:08:43.680Z,2.50
2023-04-13T00:13:47.714Z,2.63
2023-04-13T00:18:50.661Z,2.50
2023-04-13T00:23:53.337Z,2.67
2023-04-13T00:28:55.163Z,2.03
2023-04-13T00:33:57.262Z,2.05
2023-04-13T00:39:02.935Z,1.92
2023-04-13T00:44:04.827Z,1.80
2023-04-13T00:49:07.364Z,1.33
2023-04-13T00:54:10.005Z,1.63
2023-04-13T00:59:12.669Z,1.58
2023-04-13T01:04:14.610Z,1.90
2023-04-13T01:09:21.211Z,1.10
2023-04-13T01:14:57.490Z,1.25
2023-04-13T01:20:06.677Z,1.33
2023-04-13T01:25:41.942Z,1.17
2023-04-13T01:30:45.433Z,1.17
2023-04-13T01:35:50.263Z,1.27
2023-04-13T01:40:52.378Z,1.15
2023-04-13T01:46:11.498Z,1.05
2023-04-13T01:51:25.038Z,1.00
2023-04-13T01:56:31.730Z,0.85
2023-04-13T02:01:41.299Z,0.90
2023-04-13T02:06:43.562Z,1.02
2023-04-13T02:11:45.720Z,1.20
2023-04-13T02:16:47.785Z,1.00
2023-04-13T02:21:50.314Z,1.30
2023-04-13T02:26:53.272Z,1.27
2023-04-13T02:31:56.314Z,1.02
2023-04-13T02:36:58.277Z,1.08
2023-04-13T02:42:00.210Z,0.80
2023-04-13T02:47:06.289Z,1.17
2023-04-13T02:52:08.274Z,1.10
2023-04-13T02:57:19.950Z,1.23
2023-04-13T03:02:23.434Z,0.88
2023-04-13T03:07:26.427Z,0.90
2023-04-13T03:12:28.797Z,1.15
2023-04-13T03:17:31.292Z,1.00
2023-04-13T03:22:34.474Z,0.95
2023-04-13T03:27:38.083Z,0.90
2023-04-13T03:32:40.901Z,0.75
2023-04-13T03:37:45.075Z,1.02
2023-04-13T03:43:06.065Z,0.70
2023-04-13T03:48:12.007Z,0.70
2023-04-13T03:53:14.020Z,0.80
2023-04-13T03:58:19.243Z,1.13
2023-04-13T04:03:22.842Z,0.60
2023-04-13T04:08:29.623Z,0.80
2023-04-13T04:13:36.259Z,0.70
2023-04-13T04:18:43.589Z,0.90
2023-04-13T04:23:49.359Z,0.70
2023-04-13T04:28:52.012Z,0.70
2023-04-13T04:33:56.997Z,0.80
2023-04-13T04:39:02.715Z,0.90
2023-04-13T04:44:09.453Z,1.15
2023-04-13T04:49:15.578Z,0.90
2023-04-13T04:54:18.504Z,2.00
2023-04-13T04:59:22.259Z,1.13
2023-04-13T05:04:38.993Z,0.75
2023-04-13T05:09:42.290Z,0.80
2023-04-13T05:14:44.290Z,0.77
2023-04-13T05:19:48.409Z,0.93
2023-04-13T05:25:11.881Z,0.70
2023-04-13T05:30:14.253Z,1.73
2023-04-13T05:35:18.103Z,0.65
2023-04-13T05:40:20.490Z,0.68
2023-04-13T05:45:24.405Z,0.70
2023-04-13T05:50:36.710Z,0.40
2023-04-13T05:55:40.800Z,0.40
2023-04-13T06:00:43.272Z,0.68
2023-04-13T06:05:49.522Z,0.60
2023-04-13T06:10:51.357Z,0.75
2023-04-13T06:15:53.401Z,0.60
2023-04-13T06:20:57.273Z,0.63
2023-04-13T06:25:59.165Z,0.70
2023-04-13T06:31:16.796Z,0.82
2023-04-13T06:36:21.555Z,2.88
2023-04-13T06:41:23.929Z,2.35
2023-04-13T06:46:27.812Z,2.65
2023-04-13T06:51:34.834Z,1.70
2023-04-13T06:56:36.821Z,1.55
2023-04-13T07:01:39.641Z,1.88
2023-04-13T07:06:41.681Z,0.80
2023-04-13T07:11:44.067Z,0.90
2023-04-13T07:16:46.812Z,0.80
2023-04-13T07:21:50.235Z,0.80
2023-04-13T07:26:52.777Z,1.05
2023-04-13T07:32:03.309Z,1.30
2023-04-13T07:37:07.868Z,0.60
2023-04-13T07:42:09.721Z,0.95
2023-04-13T07:47:25.228Z,0.98
2023-04-13T07:52:31.633Z,0.73
2023-04-13T07:57:33.817Z,0.90
2023-04-13T08:02:38.853Z,0.60
2023-04-13T08:07:41.403Z,0.77
2023-04-13T08:12:43.581Z,0.90
2023-04-13T08:17:47.638Z,0.80
2023-04-13T08:22:50.287Z,0.82
2023-04-13T08:28:01.411Z,0.95
2023-04-13T08:33:04.180Z,0.80
2023-04-13T08:38:07.760Z,0.80
2023-04-13T08:43:11.130Z,0.57
2023-04-13T08:48:15.490Z,0.80
2023-04-13T08:53:19.096Z,0.60
2023-04-13T08:58:24.646Z,0.70
2023-04-13T09:03:33.970Z,0.90
2023-04-13T09:08:37.320Z,0.73
2023-04-13T09:13:49.000Z,1.35
2023-04-13T09:18:58.849Z,1.92
2023-04-13T09:24:00.914Z,7.30
2023-04-13T09:29:03.320Z,11.90
2023-04-13T09:34:06.113Z,5.88
2023-04-13T09:39:08.223Z,2.10
2023-04-13T09:44:18.883Z,1.20
2023-04-13T09:49:20.778Z,2.30
2023-04-13T10:22:32.882Z,0.85
2023-04-13T10:27:36.597Z,1.27
2023-04-13T10:32:38.421Z,0.75
2023-04-13T10:37:41.673Z,2.20
2023-04-13T10:47:53.227Z,6.20
2023-04-13T10:53:05.120Z,2.40
2023-04-13T10:58:20.591Z,1.83
2023-04-13T11:03:29.999Z,1.15
2023-04-13T11:08:32.868Z,1.80
2023-04-13T11:13:34.644Z,4.93
2023-04-13T11:18:36.836Z,0.90
2023-04-13T11:23:38.640Z,0.60
2023-04-13T11:28:42.526Z,0.75
2023-04-13T11:33:49.242Z,0.90
2023-04-13T11:38:52.276Z,0.55
2023-04-13T11:43:54.712Z,0.85
2023-04-13T11:48:58.940Z,0.70
2023-04-13T11:54:02.124Z,0.93
2023-04-13T11:59:04.485Z,0.70
2023-04-13T12:04:15.315Z,0.70
2023-04-13T12:09:22.129Z,0.52
2023-04-13T12:19:30.386Z,1.17
2023-04-13T12:24:38.579Z,0.60
2023-04-13T12:29:41.874Z,0.80
2023-04-13T12:34:44.087Z,0.60
2023-04-13T12:39:45.862Z,0.60
2023-04-13T12:44:47.651Z,0.52
2023-04-13T12:49:49.416Z,0.70
2023-04-13T12:54:51.372Z,0.75
2023-04-13T12:59:53.296Z,0.75
2023-04-13T13:04:59.219Z,0.73
2023-04-13T13:10:01.957Z,0.50
2023-04-13T13:15:05.929Z,0.60
2023-04-13T13:20:09.698Z,0.43
2023-04-13T13:25:11.699Z,0.80
2023-04-13T13:30:14.468Z,0.90
2023-04-13T13:35:16.848Z,0.80
2023-04-13T13:40:18.931Z,0.40
2023-04-13T13:45:21.869Z,1.10
2023-04-13T13:50:24.037Z,0.60
2023-04-13T13:55:27.522Z,0.70
2023-04-13T14:00:29.399Z,0.80
2023-04-13T14:05:32.080Z,0.68
2023-04-13T14:10:35.956Z,0.80
2023-04-13T14:15:37.750Z,0.70
2023-04-13T14:20:40.343Z,0.80
2023-04-13T14:25:42.603Z,0.50
2023-04-13T14:30:45.190Z,0.80
2023-04-13T14:35:46.982Z,0.70
2023-04-13T14:40:49.065Z,0.52
2023-04-13T14:45:55.154Z,0.90
2023-04-13T14:50:57.057Z,0.77
2023-04-13T14:55:59.252Z,1.10
2023-04-13T15:01:01.748Z,1.23
2023-04-13T15:06:05.325Z,0.90
2023-04-13T15:11:07.811Z,0.93
2023-04-13T15:16:09.614Z,0.75
2023-04-13T15:21:11.477Z,1.05
2023-04-13T15:26:18.323Z,0.70
2023-04-13T15:31:21.909Z,1.27
2023-04-13T15:36:23.835Z,0.95
2023-04-13T15:41:27.518Z,1.52
2023-04-13T15:46:30.002Z,1.13
2023-04-13T15:51:32.502Z,1.67
2023-04-13T15:56:34.281Z,1.17
2023-04-13T16:01:49.709Z,1.85
2023-04-13T16:07:04.960Z,0.90
2023-04-13T16:12:12.014Z,0.60
2023-04-13T16:17:17.296Z,0.65
2023-04-13T16:22:19.059Z,0.60
2023-04-13T16:27:20.889Z,0.90
2023-04-13T16:32:22.748Z,0.85
2023-04-13T16:37:24.556Z,0.80
2023-04-13T16:42:26.362Z,1.05
2023-04-13T16:47:28.353Z,1.10
2023-04-13T16:52:34.789Z,1.33
2023-04-13T16:57:37.245Z,1.15
2023-04-13T17:02:41.605Z,1.38
2023-04-13T17:07:44.786Z,0.80
2023-04-13T17:12:47.263Z,1.15
2023-04-13T17:17:49.134Z,0.90
2023-04-13T17:22:51.190Z,1.33
2023-04-13T17:27:53.597Z,0.80
2023-04-13T17:32:55.529Z,0.95
2023-04-13T17:37:57.317Z,1.38
2023-04-13T17:42:59.159Z,1.45
2023-04-13T17:48:10.222Z,1.70
2023-04-13T17:53:12.258Z,2.72
2023-04-13T17:58:14.564Z,2.42
2023-04-13T18:03:18.061Z,1.50
2023-04-13T18:08:20.677Z,2.53
2023-04-13T18:13:22.805Z,2.22
2023-04-13T18:18:25.462Z,11.60
2023-04-13T18:23:27.684Z,7.07
2023-04-13T18:28:30.221Z,2.25
2023-04-13T18:33:32.578Z,1.02
2023-04-13T18:38:34.386Z,1.95
2023-04-13T18:43:36.381Z,1.30
2023-04-13T18:48:38.643Z,1.00
2023-04-13T18:53:41.184Z,0.98
2023-04-13T18:58:44.650Z,1.20
2023-04-13T19:03:47.524Z,1.88
2023-04-13T19:08:49.908Z,3.28
2023-04-13T19:13:52.163Z,3.22
2023-04-13T19:18:54.390Z,2.50
2023-04-13T19:23:57.120Z,2.03
2023-04-13T19:29:00.730Z,2.33
2023-04-13T19:34:02.828Z,1.95
2023-04-13T19:39:08.032Z,1.85
2023-04-13T19:44:10.223Z,1.45
2023-04-13T19:49:13.626Z,1.88
2023-04-13T19:54:15.444Z,2.80
2023-04-13T19:59:17.846Z,3.47
2023-04-13T20:04:19.801Z,2.97
2023-04-13T20:09:22.337Z,2.33
2023-04-13T20:14:24.325Z,2.00
2023-04-13T20:19:26.476Z,1.88
2023-04-13T20:24:28.337Z,1.67
2023-04-13T20:29:30.526Z,2.10
2023-04-13T20:34:35.003Z,1.70
2023-04-13T20:39:40.358Z,1.77
2023-04-13T20:44:44.765Z,1.92
2023-04-13T20:49:51.942Z,1.95
2023-04-13T20:54:54.766Z,2.70
2023-04-13T20:59:56.630Z,1.95
2023-04-13T21:04:58.428Z,2.30
2023-04-13T21:10:00.236Z,2.35
2023-04-13T21:15:03.081Z,3.05
2023-04-13T21:20:08.597Z,2.50
2023-04-13T21:25:10.411Z,3.03
2023-04-13T21:30:12.310Z,2.47
2023-04-13T21:35:17.357Z,2.53
2023-04-13T21:40:19.292Z,2.83
2023-04-13T21:45:21.155Z,2.38
2023-04-13T21:50:23.023Z,2.15
2023-04-13T21:55:24.828Z,2.35
2023-04-13T22:00:26.938Z,2.00
2023-04-13T22:05:28.649Z,2.28
2023-04-13T22:10:30.684Z,2.80
2023-04-13T22:15:32.506Z,2.50
2023-04-13T22:20:34.306Z,2.28
2023-04-13T22:25:36.085Z,2.30
2023-04-13T22:30:37.965Z,2.50
2023-04-13T22:35:39.734Z,2.22
2023-04-13T22:40:41.578Z,2.25
2023-04-13T22:45:43.349Z,2.25
2023-04-13T22:50:45.137Z,1.77
2023-04-13T22:55:46.934Z,2.35
2023-04-13T23:00:48.680Z,2.22
2023-04-13T23:05:50.646Z,2.05
2023-04-13T23:10:52.639Z,2.20
2023-04-13T23:16:00.642Z,2.10
2023-04-13T23:21:10.282Z,1.73
2023-04-13T23:26:12.064Z,1.95
2023-04-13T23:31:14.063Z,1.73
2023-04-13T23:36:16.451Z,2.13
2023-04-13T23:41:18.332Z,2.15
2023-04-13T23:46:20.314Z,2.80
2023-04-13T23:51:22.486Z,2.70
2023-04-13T23:56:24.309Z,2.47
